Time;durP1;ratioP1;P1;durP2;ratioP2;P2;SDS_P1;SDS_P2;PMS_P1;PMS_P2;Temp;Humidity;BMP_temperature;BMP_pressure;BME280_temperature;BME280_humidity;BME280_pressure;Samples;Min_cycle;Max_cycle;Signal;HPM_P1;HPM_P2
2021/03/27 00:01:58;;;;;;;1.10;0.30;;;6.60;99.90;;;;;;5044659;28;20056;-66
2021/03/27 00:04:42;;;;;;;1.13;0.50;;;6.50;99.90;;;;;;5046919;28;20045;-65
2021/03/27 00:07:17;;;;;;;4.22;0.75;;;6.60;99.90;;;;;;5043488;28;20516;-65
2021/03/27 00:10:04;;;;;;;3.55;0.20;;;6.50;99.90;;;;;;5027807;28;20029;-65
2021/03/27 00:12:42;;;;;;;1.02;0.30;;;6.50;99.90;;;;;;5032725;28;20129;-65
2021/03/27 00:15:20;;;;;;;2.13;0.45;;;6.50;99.90;;;;;;5040493;28;20029;-65
2021/03/27 00:18:41;;;;;;;2.03;0.30;;;6.60;99.90;;;;;;5037576;28;20033;-65
2021/03/27 00:21:22;;;;;;;3.50;0.30;;;6.50;99.90;;;;;;4999568;28;20120;-64
2021/03/27 00:24:08;;;;;;;1.27;0.40;;;6.50;99.90;;;;;;5032863;28;20040;-65
2021/03/27 00:26:40;;;;;;;2.50;0.50;;;6.50;99.90;;;;;;5044421;28;20056;-65
2021/03/27 00:29:23;;;;;;;4.65;0.60;;;6.50;99.90;;;;;;5037684;28;20088;-65
2021/03/27 00:31:55;;;;;;;2.38;0.30;;;6.60;99.90;;;;;;5034801;28;20114;-65
2021/03/27 00:34:26;;;;;;;1.70;0.22;;;6.60;99.90;;;;;;5038546;28;20047;-65
2021/03/27 00:36:54;;;;;;;;;;;6.60;99.90;;;;;;5039896;28;20021;-64
2021/03/27 00:39:40;;;;;;;2.63;0.55;;;6.60;99.90;;;;;;5044171;28;19924;-65
2021/03/27 00:42:28;;;;;;;1.38;0.35;;;6.60;99.90;;;;;;5051855;28;20059;-65
2021/03/27 00:45:00;;;;;;;2.55;0.45;;;6.60;99.90;;;;;;5047009;28;20045;-65
2021/03/27 00:47:29;;;;;;;4.07;0.40;;;6.60;99.90;;;;;;5049603;28;20097;-66
2021/03/27 00:50:05;;;;;;;3.40;0.50;;;6.60;99.90;;;;;;5041160;28;20072;-65
2021/03/27 00:52:36;;;;;;;2.33;0.52;;;6.50;99.90;;;;;;5042215;28;20152;-65
2021/03/27 00:55:05;;;;;;;1.60;0.75;;;6.60;99.90;;;;;;5039001;28;20044;-65
2021/03/27 00:57:34;;;;;;;2.53;0.80;;;6.60;99.90;;;;;;5041293;28;20645;-65
2021/03/27 01:00:16;;;;;;;5.97;1.60;;;6.50;99.90;;;;;;5038101;28;20061;-65
2021/03/27 01:03:03;;;;;;;1.80;1.02;;;6.40;99.90;;;;;;5039705;28;20527;-65
2021/03/27 01:05:31;;;;;;;0.90;0.57;;;6.40;99.90;;;;;;5037761;28;20030;-65
2021/03/27 01:07:59;;;;;;;1.30;0.30;;;6.30;99.90;;;;;;5041284;28;20137;-64
2021/03/27 01:10:38;;;;;;;1.75;0.30;;;6.30;99.90;;;;;;5040580;28;20040;-64
2021/03/27 01:13:08;;;;;;;2.53;0.30;;;6.20;99.90;;;;;;5031410;28;20048;-65
2021/03/27 01:15:40;;;;;;;0.82;0.30;;;6.20;99.90;;;;;;5042790;28;20033;-64
2021/03/27 01:18:09;;;;;;;1.33;0.13;;;6.20;99.90;;;;;;5041887;28;20120;-65
2021/03/27 01:20:38;;;;;;;6.07;0.65;;;6.10;99.90;;;;;;5042087;28;20034;-65
2021/03/27 01:23:05;;;;;;;2.65;0.57;;;6.10;99.90;;;;;;5039346;28;20056;-65
2021/03/27 01:25:34;;;;;;;2.97;0.50;;;6.00;99.90;;;;;;5037729;28;20140;-64
2021/03/27 01:28:29;;;;;;;1.48;0.32;;;6.00;99.90;;;;;;5040732;28;20033;-65
2021/03/27 01:31:09;;;;;;;3.60;0.98;;;6.00;99.90;;;;;;5030600;28;20044;-65
2021/03/27 01:34:03;;;;;;;2.00;0.52;;;5.90;99.90;;;;;;5042722;28;20494;-65
2021/03/27 01:36:49;;;;;;;0.77;0.20;;;5.90;99.90;;;;;;5039567;28;20656;-65
2021/03/27 01:39:19;;;;;;;1.75;0.30;;;5.90;99.90;;;;;;5031935;28;20044;-65
2021/03/27 01:41:53;;;;;;;1.23;0.30;;;5.90;99.90;;;;;;5040235;28;20508;-65
2021/03/27 01:44:32;;;;;;;2.47;0.68;;;5.80;99.90;;;;;;5038100;28;20033;-65
2021/03/27 01:47:08;;;;;;;2.28;0.65;;;5.70;99.90;;;;;;5039463;28;20029;-65
2021/03/27 01:49:49;;;;;;;2.13;0.68;;;5.60;99.90;;;;;;5040290;28;20048;-65
2021/03/27 01:52:14;;;;;;;3.85;0.40;;;5.60;99.90;;;;;;5027297;28;20052;-65
2021/03/27 01:54:55;;;;;;;4.00;0.43;;;5.60;99.90;;;;;;5046039;28;20497;-65
2021/03/27 01:57:26;;;;;;;1.30;0.38;;;5.50;99.90;;;;;;5033924;28;20060;-65
2021/03/27 02:00:17;;;;;;;1.70;0.50;;;5.40;99.90;;;;;;5039973;28;20044;-65
2021/03/27 02:03:01;;;;;;;4.15;0.50;;;5.40;99.90;;;;;;5018943;28;20772;-65
2021/03/27 02:05:37;;;;;;;1.92;0.57;;;5.20;99.90;;;;;;5038539;28;20043;-65
2021/03/27 02:08:12;;;;;;;3.97;1.10;;;5.10;99.90;;;;;;5040686;28;20049;-65
2021/03/27 02:10:40;;;;;;;3.47;1.13;;;5.00;99.90;;;;;;5033693;28;20040;-65
2021/03/27 02:13:08;;;;;;;3.38;1.00;;;5.00;99.90;;;;;;5033932;28;20036;-65
2021/03/27 02:15:56;;;;;;;4.20;1.20;;;4.90;99.90;;;;;;5037351;28;20394;-65
2021/03/27 02:18:34;;;;;;;9.65;2.08;;;4.90;99.90;;;;;;5039190;28;20032;-66
2021/03/27 02:21:37;;;;;;;5.88;1.60;;;4.90;99.90;;;;;;5038268;28;20029;-65
2021/03/27 02:24:09;;;;;;;6.13;1.48;;;4.90;99.90;;;;;;5039607;28;20033;-64
2021/03/27 02:26:49;;;;;;;8.10;3.20;;;4.90;99.90;;;;;;5033635;28;20653;-65
2021/03/27 02:29:32;;;;;;;9.88;3.22;;;5.00;99.90;;;;;;5031894;28;20163;-65
2021/03/27 02:32:09;;;;;;;24.15;4.22;;;5.00;99.90;;;;;;5042273;28;20055;-65
2021/03/27 02:34:44;;;;;;;9.27;3.20;;;5.10;99.90;;;;;;5029776;28;20046;-64
2021/03/27 02:37:20;;;;;;;4.70;2.13;;;5.20;99.90;;;;;;5033778;28;20049;-65
2021/03/27 02:40:05;;;;;;;18.92;3.42;;;5.30;99.90;;;;;;5039933;28;20033;-65
2021/03/27 02:42:34;;;;;;;11.77;2.80;;;5.30;99.90;;;;;;5037460;28;20084;-64
2021/03/27 02:45:11;;;;;;;10.45;2.30;;;5.30;99.90;;;;;;5040505;28;20068;-65
2021/03/27 02:47:40;;;;;;;6.25;2.25;;;5.40;99.90;;;;;;5027923;28;20040;-65
2021/03/27 02:50:24;;;;;;;12.80;2.05;;;5.40;99.90;;;;;;5032458;28;20030;-64
2021/03/27 02:53:04;;;;;;;11.75;2.72;;;5.40;99.90;;;;;;5027280;28;20040;-64
2021/03/27 02:55:45;;;;;;;7.43;2.08;;;5.40;99.90;;;;;;5036840;28;20232;-65
2021/03/27 02:58:29;;;;;;;10.75;2.30;;;5.40;99.90;;;;;;5032954;28;20136;-65
2021/03/27 03:01:09;;;;;;;6.72;1.70;;;5.30;99.90;;;;;;5041034;28;20037;-64
2021/03/27 03:03:41;;;;;;;10.43;2.13;;;5.40;99.90;;;;;;5036968;28;20082;-66
2021/03/27 03:06:36;;;;;;;14.43;2.53;;;5.40;99.90;;;;;;5037562;28;20025;-65
2021/03/27 03:09:31;;;;;;;11.57;2.33;;;5.40;99.90;;;;;;5031631;28;20048;-65
2021/03/27 03:11:56;;;;;;;10.40;2.58;;;5.40;99.90;;;;;;5036948;28;20056;-64
2021/03/27 03:14:40;;;;;;;11.82;3.10;;;5.40;99.90;;;;;;5040289;28;20469;-65
2021/03/27 03:17:25;;;;;;;7.43;1.60;;;5.40;99.90;;;;;;5037077;28;20724;-65
2021/03/27 03:19:56;;;;;;;6.95;2.10;;;5.30;99.90;;;;;;5023703;28;20045;-64
2021/03/27 03:22:43;;;;;;;14.40;2.75;;;5.30;99.90;;;;;;5041330;28;20140;-65
2021/03/27 03:25:13;;;;;;;8.65;1.70;;;5.40;99.90;;;;;;5037272;28;20111;-65
2021/03/27 03:27:48;;;;;;;9.20;1.60;;;5.40;99.90;;;;;;5040060;28;20433;-65
2021/03/27 03:30:28;;;;;;;6.78;1.90;;;5.50;99.90;;;;;;5039276;28;20033;-65
2021/03/27 03:33:31;;;;;;;7.35;2.03;;;5.60;99.90;;;;;;5037649;28;20034;-65
2021/03/27 03:36:21;;;;;;;11.93;2.95;;;5.60;99.90;;;;;;5039705;28;20068;-64
2021/03/27 03:39:09;;;;;;;9.93;1.70;;;5.70;99.90;;;;;;5040916;28;20029;-65
2021/03/27 03:41:50;;;;;;;10.15;1.75;;;5.80;99.90;;;;;;5035991;28;20030;-65
2021/03/27 03:44:24;;;;;;;8.30;1.67;;;5.80;99.90;;;;;;5041533;28;20516;-65
2021/03/27 03:46:58;;;;;;;7.70;1.85;;;5.90;99.90;;;;;;5043038;28;20413;-65
2021/03/27 03:49:47;;;;;;;23.35;2.20;;;5.90;99.90;;;;;;5041286;28;20124;-65
2021/03/27 03:52:41;;;;;;;10.23;2.55;;;5.90;99.90;;;;;;5039585;28;20033;-67
2021/03/27 03:55:15;;;;;;;10.00;2.10;;;5.90;99.90;;;;;;5015832;28;20202;-65
2021/03/27 03:58:08;;;;;;;16.38;3.40;;;6.00;99.90;;;;;;5043075;28;20346;-65
2021/03/27 04:01:08;;;;;;;8.57;1.30;;;6.00;99.90;;;;;;5038284;28;20119;-65
2021/03/27 04:03:58;;;;;;;6.22;1.05;;;6.00;99.90;;;;;;5023955;28;20032;-65
2021/03/27 04:06:26;;;;;;;17.05;2.15;;;6.10;99.90;;;;;;5043015;28;20064;-65
2021/03/27 04:09:13;;;;;;;5.85;1.10;;;6.10;99.90;;;;;;5047285;28;20029;-65
2021/03/27 04:11:52;;;;;;;12.35;1.58;;;6.10;99.90;;;;;;5042873;28;20390;-65
2021/03/27 04:14:35;;;;;;;6.68;1.00;;;6.10;99.90;;;;;;5045643;28;20037;-64
2021/03/27 04:17:26;;;;;;;8.57;1.50;;;6.10;99.90;;;;;;5044396;28;20079;-65
2021/03/27 04:20:23;;;;;;;12.73;1.70;;;6.10;99.90;;;;;;5040646;28;20042;-65
2021/03/27 04:23:11;;;;;;;17.23;2.08;;;6.00;99.90;;;;;;5038966;28;20053;-65
2021/03/27 04:25:44;;;;;;;8.57;1.75;;;6.00;99.90;;;;;;5043834;28;20129;-65
2021/03/27 04:28:17;;;;;;;11.48;1.27;;;6.00;99.90;;;;;;5047677;28;20049;-65
2021/03/27 04:31:12;;;;;;;7.88;1.40;;;6.20;99.90;;;;;;5041418;28;20029;-65
2021/03/27 04:33:46;;;;;;;9.75;1.60;;;6.10;99.90;;;;;;5028565;28;20044;-65
2021/03/27 04:36:42;;;;;;;14.80;1.23;;;6.20;99.90;;;;;;5042072;28;20484;-65
2021/03/27 04:39:25;;;;;;;7.80;1.10;;;6.20;99.90;;;;;;5037615;28;20057;-65
2021/03/27 04:41:59;;;;;;;9.63;1.88;;;6.20;99.90;;;;;;5039994;28;20451;-65
2021/03/27 04:45:04;;;;;;;8.13;1.75;;;6.20;99.90;;;;;;5042777;28;20036;-65
2021/03/27 04:47:53;;;;;;;14.85;1.33;;;6.20;99.90;;;;;;5034814;28;20061;-65
2021/03/27 04:50:21;;;;;;;5.65;0.88;;;6.30;99.90;;;;;;5039724;28;20307;-65
2021/03/27 04:53:17;;;;;;;10.30;1.48;;;6.20;99.90;;;;;;5040501;28;20056;-65
2021/03/27 04:55:53;;;;;;;10.27;1.00;;;6.30;99.90;;;;;;5037972;28;20036;-65
2021/03/27 04:58:26;;;;;;;7.68;1.20;;;6.20;99.90;;;;;;5038696;28;20121;-65
2021/03/27 05:01:03;;;;;;;13.40;2.75;;;6.20;99.90;;;;;;5039549;28;20505;-65
2021/03/27 05:03:31;;;;;;;9.35;1.27;;;6.20;99.90;;;;;;5040812;28;20063;-65
2021/03/27 05:06:04;;;;;;;9.98;1.20;;;6.10;99.90;;;;;;5034730;28;20025;-65
2021/03/27 05:08:45;;;;;;;13.38;2.22;;;6.00;99.90;;;;;;5036530;28;20044;-65
2021/03/27 05:11:27;;;;;;;6.82;1.00;;;6.00;99.90;;;;;;5041012;28;20479;-65
2021/03/27 05:14:11;;;;;;;10.45;1.58;;;5.90;99.90;;;;;;5036115;28;20030;-65
2021/03/27 05:16:45;;;;;;;26.58;2.53;;;5.90;99.90;;;;;;5036273;28;20029;-65
2021/03/27 05:19:17;;;;;;;13.30;1.48;;;6.00;99.90;;;;;;5034787;28;20022;-65
2021/03/27 05:21:45;;;;;;;16.25;2.10;;;6.00;99.90;;;;;;5040385;28;20083;-65
2021/03/27 05:24:23;;;;;;;15.77;2.33;;;6.10;99.90;;;;;;5040031;28;20229;-65
2021/03/27 05:26:58;;;;;;;14.77;2.60;;;6.10;99.90;;;;;;5031743;28;20083;-64
2021/03/27 05:29:50;;;;;;;8.05;1.35;;;6.20;99.90;;;;;;5040653;28;20052;-65
2021/03/27 05:32:29;;;;;;;8.20;1.33;;;6.10;99.90;;;;;;5038020;28;20041;-64
2021/03/27 05:35:00;;;;;;;4.30;0.82;;;6.10;99.90;;;;;;5033422;28;20516;-64
2021/03/27 05:37:44;;;;;;;5.40;0.90;;;6.10;99.90;;;;;;5034748;28;20387;-64
2021/03/27 05:40:24;;;;;;;15.60;0.77;;;6.10;99.90;;;;;;5035220;28;20030;-64
2021/03/27 05:43:20;;;;;;;5.32;0.82;;;6.10;99.90;;;;;;5039013;28;20057;-64
2021/03/27 05:46:11;;;;;;;3.78;0.57;;;6.00;99.90;;;;;;5039627;28;20041;-64
2021/03/27 05:48:55;;;;;;;5.43;1.02;;;5.90;99.90;;;;;;5031558;28;20064;-65
2021/03/27 05:51:47;;;;;;;1.35;0.32;;;5.80;99.90;;;;;;5042503;28;20233;-64
2021/03/27 05:54:40;;;;;;;3.88;0.77;;;5.70;99.90;;;;;;5037196;28;20409;-65
2021/03/27 05:57:21;;;;;;;4.97;0.52;;;5.60;99.90;;;;;;5039392;28;20111;-64
2021/03/27 06:00:18;;;;;;;4.70;0.68;;;5.50;99.90;;;;;;5040517;28;20111;-65
2021/03/27 06:03:16;;;;;;;7.53;0.90;;;5.40;99.90;;;;;;5037697;28;20574;-65
2021/03/27 06:06:01;;;;;;;4.45;0.93;;;5.40;99.90;;;;;;5035995;28;20545;-64
2021/03/27 06:08:45;;;;;;;4.80;0.65;;;5.40;99.90;;;;;;5034084;28;20029;-64
2021/03/27 06:11:49;;;;;;;4.30;0.65;;;5.40;99.90;;;;;;5034532;28;20099;-64
2021/03/27 06:14:36;;;;;;;9.93;1.38;;;5.40;99.90;;;;;;5034969;28;20459;-64
2021/03/27 06:17:39;;;;;;;6.97;1.52;;;5.40;99.90;;;;;;5040198;28;20094;-65
2021/03/27 06:20:14;;;;;;;11.15;1.70;;;5.40;99.90;;;;;;5039049;28;20033;-65
2021/03/27 06:23:01;;;;;;;4.70;0.88;;;5.50;99.90;;;;;;5029373;28;20066;-65
2021/03/27 06:26:03;;;;;;;17.30;1.50;;;5.50;99.90;;;;;;5033259;28;20037;-64
2021/03/27 06:28:48;;;;;;;5.60;0.80;;;5.70;99.90;;;;;;5035082;28;20033;-65
2021/03/27 06:31:19;;;;;;;10.65;0.90;;;5.90;99.90;;;;;;5038504;28;20043;-65
2021/03/27 06:34:01;;;;;;;6.50;0.88;;;6.10;99.90;;;;;;5037047;28;20067;-65
2021/03/27 06:36:54;;;;;;;8.68;1.15;;;6.20;99.90;;;;;;5037170;28;20060;-65
2021/03/27 06:39:32;;;;;;;8.57;1.25;;;6.30;99.90;;;;;;5035785;28;20453;-65
2021/03/27 06:42:33;;;;;;;13.85;1.83;;;6.40;99.90;;;;;;5033305;28;20033;-65
2021/03/27 06:45:42;;;;;;;9.73;1.30;;;6.40;99.90;;;;;;5033574;28;20041;-65
2021/03/27 06:48:41;;;;;;;12.35;1.30;;;6.40;99.90;;;;;;5038265;28;20040;-65
2021/03/27 06:51:41;;;;;;;11.60;1.23;;;6.70;99.90;;;;;;5025016;28;20117;-65
2021/03/27 06:54:28;;;;;;;13.52;2.17;;;6.90;99.90;;;;;;5035675;28;20045;-65
2021/03/27 06:57:20;;;;;;;7.07;0.95;;;7.20;99.90;;;;;;5028432;28;20038;-65
2021/03/27 07:00:02;;;;;;;11.32;2.15;;;7.40;99.90;;;;;;5035392;28;20037;-66
2021/03/27 07:02:55;;;;;;;20.63;2.55;;;7.40;99.90;;;;;;5034838;28;20124;-65
2021/03/27 07:05:35;;;;;;;11.38;1.63;;;7.50;99.90;;;;;;5032839;28;20053;-65
2021/03/27 07:08:19;;;;;;;14.10;1.25;;;7.60;99.90;;;;;;5033362;28;20068;-65
2021/03/27 07:11:12;;;;;;;8.70;1.23;;;7.70;99.90;;;;;;5037550;28;20581;-65
2021/03/27 07:13:43;;;;;;;11.52;2.00;;;7.80;99.90;;;;;;5033451;28;20092;-66
2021/03/27 07:16:33;;;;;;;9.05;1.92;;;7.90;99.90;;;;;;5040782;28;20100;-65
2021/03/27 07:19:36;;;;;;;6.65;1.00;;;8.10;99.90;;;;;;5034254;28;20572;-64
2021/03/27 07:22:27;;;;;;;16.27;1.85;;;8.20;99.90;;;;;;5036310;28;20038;-64
2021/03/27 07:25:14;;;;;;;11.05;1.73;;;8.40;99.90;;;;;;5033641;28;20073;-65
2021/03/27 07:28:20;;;;;;;14.43;1.45;;;8.50;99.90;;;;;;5035791;28;20136;-65
2021/03/27 07:31:20;;;;;;;6.65;1.60;;;8.40;99.90;;;;;;5039695;28;20044;-65
2021/03/27 07:33:57;;;;;;;13.93;2.30;;;8.50;99.90;;;;;;5038110;28;20226;-65
2021/03/27 07:36:59;;;;;;;13.00;1.88;;;8.40;99.90;;;;;;5033947;28;20280;-64
2021/03/27 07:39:38;;;;;;;6.57;1.20;;;8.50;99.90;;;;;;5034198;28;20042;-65
2021/03/27 07:42:20;;;;;;;13.70;1.63;;;8.50;99.90;;;;;;5027989;28;20025;-65
2021/03/27 07:45:07;;;;;;;12.07;1.48;;;8.50;99.90;;;;;;5033273;28;20108;-65
2021/03/27 07:47:50;;;;;;;10.88;1.40;;;8.60;99.90;;;;;;5030871;28;20572;-65
2021/03/27 07:50:32;;;;;;;13.68;1.95;;;8.70;99.90;;;;;;5029332;28;20486;-65
2021/03/27 07:53:25;;;;;;;16.30;1.70;;;8.80;99.90;;;;;;5033351;28;20037;-64
2021/03/27 07:56:18;;;;;;;7.95;1.40;;;9.00;99.90;;;;;;5033710;28;20506;-66
2021/03/27 07:59:02;;;;;;;10.43;1.15;;;9.30;99.90;;;;;;5033153;28;20053;-65
2021/03/27 08:01:46;;;;;;;10.02;1.48;;;9.80;99.90;;;;;;5045125;28;20057;-66
2021/03/27 08:04:30;;;;;;;9.20;1.60;;;10.20;99.90;;;;;;5039068;28;20060;-65
2021/03/27 08:07:09;;;;;;;9.40;1.63;;;10.20;99.90;;;;;;5042056;28;20056;-65
2021/03/27 08:10:03;;;;;;;7.90;1.00;;;10.00;99.90;;;;;;5039711;28;20044;-65
2021/03/27 08:12:43;;;;;;;4.13;0.57;;;9.60;99.90;;;;;;5046927;28;20033;-66
2021/03/27 08:15:25;;;;;;;3.67;1.00;;;9.20;99.90;;;;;;5048089;28;20466;-66
2021/03/27 08:17:56;;;;;;;14.77;1.67;;;8.70;99.90;;;;;;5037093;28;20045;-65
2021/03/27 08:20:27;;;;;;;;;;;8.30;99.90;;;;;;5039259;28;20188;-65
2021/03/27 08:23:13;;;;;;;7.03;1.88;;;8.30;99.90;;;;;;5041147;28;19913;-65
2021/03/27 08:26:00;;;;;;;6.30;1.17;;;8.50;99.90;;;;;;5041381;28;20047;-65
2021/03/27 08:28:56;;;;;;;4.00;1.25;;;8.80;99.90;;;;;;5041046;28;20119;-65
2021/03/27 08:32:09;;;;;;;15.18;1.40;;;9.20;99.90;;;;;;5039210;28;20041;-65
2021/03/27 08:34:59;;;;;;;11.98;0.88;;;9.40;99.90;;;;;;5039531;28;20033;-65
2021/03/27 08:37:37;;;;;;;11.68;1.77;;;9.40;99.90;;;;;;5027975;28;20053;-65
2021/03/27 08:40:40;;;;;;;7.88;1.35;;;9.40;99.90;;;;;;5022391;28;20073;-66
2021/03/27 08:43:28;;;;;;;7.47;0.80;;;9.50;99.90;;;;;;5018583;28;20042;-65
2021/03/27 08:46:16;;;;;;;7.47;1.40;;;9.80;99.90;;;;;;5023732;28;20065;-65
2021/03/27 08:48:59;;;;;;;5.63;0.93;;;10.20;99.90;;;;;;5022619;28;20033;-65
2021/03/27 08:51:45;;;;;;;9.07;1.05;;;10.40;99.90;;;;;;5030386;28;20034;-66
2021/03/27 08:54:40;;;;;;;9.60;1.80;;;10.40;99.90;;;;;;5020902;28;20508;-66
2021/03/27 08:57:57;;;;;;;14.00;1.17;;;10.20;99.90;;;;;;5023605;28;20021;-66
2021/03/27 09:00:39;;;;;;;8.80;1.38;;;10.00;99.90;;;;;;5016731;28;20029;-66
2021/03/27 09:03:38;;;;;;;7.05;1.17;;;10.10;99.90;;;;;;5040521;28;20028;-66
2021/03/27 09:06:23;;;;;;;5.55;1.23;;;10.60;99.90;;;;;;5042309;28;20449;-66
2021/03/27 09:09:07;;;;;;;6.28;0.80;;;10.70;99.90;;;;;;5034389;28;20021;-65
2021/03/27 09:12:04;;;;;;;17.65;1.67;;;10.70;97.70;;;;;;5038460;28;20037;-65
2021/03/27 09:14:45;;;;;;;12.82;1.83;;;10.40;98.60;;;;;;5032212;28;20175;-65
2021/03/27 09:17:31;;;;;;;10.55;2.25;;;10.00;97.80;;;;;;5040389;28;20115;-65
2021/03/27 09:20:11;;;;;;;3.92;0.70;;;9.90;99.00;;;;;;5028764;28;20061;-65
2021/03/27 09:22:50;;;;;;;7.57;1.27;;;10.00;98.70;;;;;;5032293;28;20037;-66
2021/03/27 09:25:38;;;;;;;11.52;0.90;;;10.10;99.90;;;;;;5031351;28;20033;-65
2021/03/27 09:28:04;;;;;;;5.78;0.80;;;10.30;98.80;;;;;;5035513;28;20441;-65
2021/03/27 09:30:52;;;;;;;5.88;1.33;;;10.30;96.00;;;;;;5034278;28;20038;-65
2021/03/27 09:33:28;;;;;;;12.23;1.48;;;10.40;96.90;;;;;;5033426;28;20045;-65
2021/03/27 09:35:59;;;;;;;2.72;0.80;;;10.50;94.70;;;;;;5036823;28;20060;-65
2021/03/27 09:38:33;;;;;;;4.03;1.00;;;10.70;93.50;;;;;;5031869;28;20783;-66
2021/03/27 09:41:30;;;;;;;5.55;1.00;;;10.90;94.20;;;;;;5034542;28;20037;-66
2021/03/27 09:44:17;;;;;;;5.43;0.88;;;11.00;92.30;;;;;;5036041;28;20053;-66
2021/03/27 09:46:57;;;;;;;4.00;0.93;;;11.10;87.90;;;;;;5040006;28;20033;-66
2021/03/27 09:49:56;;;;;;;3.83;0.70;;;10.90;85.20;;;;;;5037005;28;20056;-66
2021/03/27 09:52:34;;;;;;;10.88;2.80;;;10.80;90.40;;;;;;5027196;28;20037;-66
2021/03/27 09:55:21;;;;;;;8.75;1.38;;;10.70;91.90;;;;;;5036683;28;20039;-66
2021/03/27 09:58:18;;;;;;;5.80;1.40;;;10.90;90.90;;;;;;5037277;28;20122;-65
2021/03/27 10:00:58;;;;;;;4.97;0.75;;;10.80;91.60;;;;;;5041765;28;20037;-66
2021/03/27 10:03:34;;;;;;;6.28;1.15;;;10.70;90.80;;;;;;5037644;28;20045;-66
2021/03/27 10:06:37;;;;;;;6.88;1.20;;;10.60;90.40;;;;;;5033206;28;20026;-66
2021/03/27 10:09:29;;;;;;;9.85;1.45;;;10.60;92.30;;;;;;5038374;28;20401;-66
2021/03/27 10:12:10;;;;;;;5.75;0.57;;;10.60;89.80;;;;;;5035986;28;20577;-66
2021/03/27 10:14:37;;;;;;;;;;;10.70;94.40;;;;;;5039175;28;20048;-65
2021/03/27 10:17:21;;;;;;;8.38;1.10;;;10.80;94.50;;;;;;5043695;28;20383;-66
2021/03/27 10:20:00;;;;;;;7.80;1.17;;;11.00;86.60;;;;;;5037424;28;20037;-66
2021/03/27 10:23:05;;;;;;;10.00;1.13;;;11.30;91.20;;;;;;5037809;28;20152;-66
2021/03/27 10:25:39;;;;;;;6.38;1.13;;;11.70;83.70;;;;;;5031464;28;20041;-66
2021/03/27 10:28:13;;;;;;;16.60;1.15;;;12.00;79.80;;;;;;5042458;28;20044;-66
2021/03/27 10:30:59;;;;;;;9.02;1.27;;;12.20;84.80;;;;;;5040162;28;20045;-67
2021/03/27 10:33:43;;;;;;;4.35;0.95;;;12.50;75.40;;;;;;5040850;28;20444;-67
2021/03/27 10:36:20;;;;;;;4.03;0.77;;;12.70;72.10;;;;;;5037053;28;20025;-66
2021/03/27 10:39:13;;;;;;;4.65;1.17;;;12.70;72.70;;;;;;5040242;28;20485;-67
2021/03/27 10:41:38;;;;;;;5.32;1.23;;;12.80;71.80;;;;;;5035717;28;20032;-66
2021/03/27 10:44:38;;;;;;;8.45;1.10;;;12.80;72.60;;;;;;5041758;28;20033;-66
2021/03/27 10:47:15;;;;;;;6.07;0.98;;;12.60;70.70;;;;;;5041474;28;20441;-66
2021/03/27 10:49:56;;;;;;;6.72;0.95;;;12.30;73.70;;;;;;5032477;28;20175;-67
2021/03/27 10:52:40;;;;;;;13.20;1.60;;;12.00;77.40;;;;;;5042591;28;20044;-66
2021/03/27 10:55:43;;;;;;;8.05;0.95;;;11.60;79.30;;;;;;5036171;28;20044;-66
2021/03/27 10:58:18;;;;;;;8.93;1.30;;;11.20;81.50;;;;;;5036712;28;20493;-66
2021/03/27 11:01:14;;;;;;;6.53;0.95;;;10.90;83.80;;;;;;5041869;28;20041;-66
2021/03/27 11:03:52;;;;;;;8.45;1.50;;;10.70;89.50;;;;;;5035099;28;20482;-66
2021/03/27 11:07:17;;;;;;;8.02;1.40;;;10.60;90.80;;;;;;5038107;28;20369;-66
2021/03/27 11:09:54;;;;;;;8.48;1.60;;;10.50;91.40;;;;;;5035769;28;20037;-66
2021/03/27 11:13:10;;;;;;;8.27;1.02;;;10.40;92.70;;;;;;5040124;28;20033;-66
2021/03/27 11:15:47;;;;;;;6.35;1.10;;;10.30;91.80;;;;;;5015500;28;20088;-69
2021/03/27 11:18:46;;;;;;;8.40;1.05;;;10.30;92.70;;;;;;5034799;28;20037;-66
2021/03/27 11:21:38;;;;;;;5.72;1.20;;;10.60;93.00;;;;;;5035613;28;20452;-66
2021/03/27 11:24:16;;;;;;;8.50;1.05;;;10.80;89.20;;;;;;5021201;28;20029;-65
2021/03/27 11:27:00;;;;;;;9.02;2.17;;;11.00;90.90;;;;;;5040102;28;20029;-65
2021/03/27 11:29:34;;;;;;;8.35;1.23;;;10.90;90.80;;;;;;5035773;28;20033;-66
2021/03/27 11:32:15;;;;;;;7.20;1.33;;;10.90;91.40;;;;;;5041728;28;20040;-65
2021/03/27 11:35:00;;;;;;;5.10;0.95;;;10.80;91.20;;;;;;5039305;28;20033;-66
2021/03/27 11:37:26;;;;;;;8.55;1.50;;;10.70;90.50;;;;;;5038563;28;20045;-70
2021/03/27 11:40:19;;;;;;;7.05;1.73;;;10.70;91.80;;;;;;5039911;28;20741;-66
2021/03/27 11:43:05;;;;;;;8.48;0.95;;;10.70;92.40;;;;;;5047430;28;20037;-67
2021/03/27 11:45:46;;;;;;;7.00;1.70;;;10.70;93.70;;;;;;5044242;28;20186;-68
2021/03/27 11:48:37;;;;;;;8.88;1.17;;;10.80;92.90;;;;;;5034513;28;20028;-65
2021/03/27 11:51:21;;;;;;;6.43;1.20;;;10.80;92.90;;;;;;5037968;28;20036;-66
2021/03/27 11:54:09;;;;;;;8.63;1.20;;;11.00;91.30;;;;;;5036953;28;20177;-66
2021/03/27 11:56:53;;;;;;;5.85;1.25;;;11.00;92.20;;;;;;5040104;28;20581;-66
2021/03/27 12:02:53;;;;;;;11.40;1.05;;;11.10;91.10;;;;;;5043855;28;20075;-66
2021/03/27 12:05:51;;;;;;;10.23;1.70;;;11.10;91.40;;;;;;5041593;28;20025;-66
2021/03/27 12:08:32;;;;;;;7.90;1.33;;;11.20;90.10;;;;;;5035169;28;20025;-66
2021/03/27 12:11:02;;;;;;;12.15;1.75;;;11.40;90.80;;;;;;5043997;28;20040;-66
2021/03/27 12:14:09;;;;;;;10.82;1.50;;;11.50;90.00;;;;;;5043585;28;20052;-67
2021/03/27 12:16:49;;;;;;;8.20;1.33;;;11.70;89.00;;;;;;5039978;28;20041;-66
2021/03/27 12:19:15;;;;;;;3.00;0.77;;;12.00;89.40;;;;;;5041088;28;20449;-66
2021/03/27 12:21:40;;;;;;;12.88;1.25;;;12.10;90.10;;;;;;5043058;28;20026;-66
2021/03/27 12:24:26;;;;;;;6.43;1.23;;;12.30;79.70;;;;;;5044149;28;20367;-66
2021/03/27 12:27:21;;;;;;;6.70;1.63;;;12.20;78.40;;;;;;5041395;28;20057;-66
2021/03/27 12:29:57;;;;;;;10.45;1.42;;;12.20;79.00;;;;;;5040103;28;20033;-66
2021/03/27 12:32:37;;;;;;;7.78;1.30;;;11.80;78.30;;;;;;5043291;28;20044;-66
2021/03/27 12:35:40;;;;;;;5.50;0.90;;;11.50;81.10;;;;;;5043872;28;20044;-69
2021/03/27 12:38:05;;;;;;;10.30;1.40;;;11.30;83.00;;;;;;5035846;28;20052;-67
2021/03/27 12:40:36;;;;;;;8.65;1.52;;;11.10;84.00;;;;;;5040542;28;20091;-66
2021/03/27 12:43:17;;;;;;;8.07;1.20;;;10.90;88.20;;;;;;5039785;28;20033;-66
2021/03/27 12:46:08;;;;;;;8.60;1.38;;;10.60;85.90;;;;;;5039501;28;20084;-65
2021/03/27 12:48:57;;;;;;;8.73;1.45;;;10.40;88.60;;;;;;5042165;28;20067;-66
2021/03/27 12:51:42;;;;;;;7.60;1.35;;;10.50;91.10;;;;;;5040279;28;20033;-66
2021/03/27 12:54:36;;;;;;;7.15;1.58;;;10.70;89.10;;;;;;5040429;28;20032;-66
2021/03/27 12:57:14;;;;;;;10.32;1.08;;;10.80;87.60;;;;;;5039686;28;20394;-65
2021/03/27 12:59:52;;;;;;;10.38;1.20;;;10.70;90.70;;;;;;5038233;28;20037;-66
2021/03/27 13:03:04;;;;;;;11.52;1.50;;;11.00;90.60;;;;;;5033431;28;20029;-66
2021/03/27 13:05:35;;;;;;;7.35;1.20;;;11.40;83.00;;;;;;4992481;28;20089;-65
2021/03/27 13:08:31;;;;;;;14.88;1.65;;;11.50;87.10;;;;;;5035682;28;20033;-66
2021/03/27 13:11:25;;;;;;;11.35;1.42;;;11.40;82.20;;;;;;5045935;28;20033;-66
2021/03/27 13:13:51;;;;;;;12.85;1.23;;;11.40;87.70;;;;;;5037124;28;20115;-66
2021/03/27 13:16:24;;;;;;;11.30;1.17;;;11.40;85.20;;;;;;5031265;28;20034;-66
2021/03/27 13:19:08;;;;;;;13.27;1.63;;;11.30;87.00;;;;;;5041117;28;20041;-66
2021/03/27 13:21:42;;;;;;;13.90;1.63;;;11.40;86.60;;;;;;5028678;28;20581;-66
2021/03/27 13:24:15;;;;;;;5.05;1.02;;;11.50;84.30;;;;;;5034985;28;20030;-66
2021/03/27 13:26:43;;;;;;;5.43;0.70;;;11.50;83.40;;;;;;5028622;28;20038;-66
2021/03/27 13:29:35;;;;;;;6.95;1.23;;;11.40;80.10;;;;;;5030471;28;20034;-66
2021/03/27 13:32:07;;;;;;;8.88;1.17;;;11.30;82.00;;;;;;5037870;28;20044;-65
2021/03/27 13:34:40;;;;;;;8.25;1.88;;;11.40;85.60;;;;;;5039541;28;20693;-65
2021/03/27 13:37:33;;;;;;;8.38;1.42;;;11.40;86.00;;;;;;5041121;28;20040;-65
2021/03/27 13:40:03;;;;;;;12.10;1.77;;;11.40;82.90;;;;;;5037391;28;20082;-65
2021/03/27 13:42:50;;;;;;;13.10;1.88;;;11.40;79.50;;;;;;5036926;28;20083;-65
2021/03/27 13:45:27;;;;;;;13.02;1.67;;;11.20;81.60;;;;;;5037289;28;20063;-66
2021/03/27 13:48:15;;;;;;;10.93;1.73;;;11.00;83.80;;;;;;5041110;28;20037;-66
2021/03/27 13:50:54;;;;;;;7.07;1.33;;;10.90;80.50;;;;;;5040067;28;20432;-65
2021/03/27 13:53:57;;;;;;;9.52;1.08;;;10.80;79.70;;;;;;5039381;28;20130;-65
2021/03/27 13:56:34;;;;;;;6.55;1.65;;;10.60;86.20;;;;;;5041168;28;20482;-65
2021/03/27 13:59:31;;;;;;;10.02;1.30;;;10.60;88.50;;;;;;5036870;28;20067;-66
2021/03/27 14:02:33;;;;;;;7.55;1.55;;;10.60;81.80;;;;;;5037730;28;20029;-65
2021/03/27 14:05:30;;;;;;;10.50;1.95;;;10.50;83.20;;;;;;5038155;28;20037;-65
2021/03/27 14:08:21;;;;;;;7.93;2.00;;;10.40;84.50;;;;;;5037400;28;20052;-66
2021/03/27 14:10:54;;;;;;;10.82;1.40;;;10.30;82.70;;;;;;5039501;28;20029;-66
2021/03/27 14:13:41;;;;;;;6.53;1.15;;;10.20;85.30;;;;;;5038697;28;20041;-66
2021/03/27 14:16:31;;;;;;;7.20;1.65;;;10.20;85.90;;;;;;5040453;28;20048;-66
2021/03/27 14:19:20;;;;;;;8.80;1.35;;;10.10;89.30;;;;;;5040111;28;20054;-66